Impacts TAF Board
For situational awareness. Not to be used for flight planning purposes.
IDs:

KANB - Anniston Metro, AL, US

Issued at 0536 UTC 24 Jan 2019
Updated at 0713 UTC 24 Jan 2019
Potential Impact None Slight Moderate High
Time<<24/20Z 24/21Z 24/22Z 24/23Z 25/00Z 25/01Z 25/02Z 25/03Z 25/04Z 25/05Z 25/06Z 25/07Z 25/08Z>>
Type PRVL PRVL PRVL PRVL PRVL PRVL PRVL PRVL PRVL PRVL
VIS >6 >6 >6 >6 >6 >6 >6 >6 >6 >6
CIG -- -- -- -- -- -- -- -- -- --
Cover SCT SCT SCT SCT SCT SCT SCT SCT SCT SCT
FltCat VFR VFR VFR VFR VFR VFR VFR VFR VFR VFR
WX -- -- -- -- -- -- -- -- -- --
WDir 300 300 300 300 300 300 300 300 300 300
WSpd 10 10 10 10 10 10 10 10 10 10
WGst -- -- -- -- -- -- -- -- -- --
Raw TAF
KANB 240536Z 2406/2506 27012G18KT P6SM SCT007 BKN025
  TEMPO 2406/2407 3SM -RA BKN007
  FM240800 30010G18KT 5SM BR BKN007 OVC015
  FM241300 30010KT P6SM OVC025
  FM241900 30010KT P6SM SCT030


METAR Board
Radar Display
Forecast Discussion
For situational awareness. Not to be used for flight planning purposes.